sensor_id;sensor_type;location;lat;lon;timestamp;temperature;humidity
13148;DHT22;6639;50.956;4.242;2022-10-18T00:00:07;25.20;99.90
13148;DHT22;6639;50.956;4.242;2022-10-18T00:02:35;25.30;99.90
13148;DHT22;6639;50.956;4.242;2022-10-18T00:05:02;25.20;99.90
13148;DHT22;6639;50.956;4.242;2022-10-18T00:07:29;25.30;99.90
13148;DHT22;6639;50.956;4.242;2022-10-18T00:09:56;25.30;99.90
13148;DHT22;6639;50.956;4.242;2022-10-18T00:12:23;25.30;99.90
13148;DHT22;6639;50.956;4.242;2022-10-18T00:14:50;25.30;99.90
13148;DHT22;6639;50.956;4.242;2022-10-18T00:17:17;25.30;99.90
13148;DHT22;6639;50.956;4.242;2022-10-18T00:19:45;25.30;99.90
13148;DHT22;6639;50.956;4.242;2022-10-18T00:22:15;25.30;99.90
13148;DHT22;6639;50.956;4.242;2022-10-18T00:24:42;25.30;99.90
13148;DHT22;6639;50.956;4.242;2022-10-18T00:27:08;25.30;99.90
13148;DHT22;6639;50.956;4.242;2022-10-18T00:29:35;25.30;99.90
13148;DHT22;6639;50.956;4.242;2022-10-18T00:32:02;25.30;99.90
13148;DHT22;6639;50.956;4.242;2022-10-18T00:34:29;25.30;99.90
13148;DHT22;6639;50.956;4.242;2022-10-18T00:36:57;25.30;99.90
13148;DHT22;6639;50.956;4.242;2022-10-18T00:39:24;25.20;99.90
13148;DHT22;6639;50.956;4.242;2022-10-18T00:41:51;25.20;99.90
13148;DHT22;6639;50.956;4.242;2022-10-18T00:44:59;25.20;99.90
13148;DHT22;6639;50.956;4.242;2022-10-18T00:47:26;25.20;99.90
13148;DHT22;6639;50.956;4.242;2022-10-18T00:49:55;25.20;99.90
13148;DHT22;6639;50.956;4.242;2022-10-18T00:52:26;25.10;99.90
13148;DHT22;6639;50.956;4.242;2022-10-18T00:54:55;25.10;99.90
13148;DHT22;6639;50.956;4.242;2022-10-18T00:57:23;25.20;99.90
13148;DHT22;6639;50.956;4.242;2022-10-18T00:59:51;25.20;99.90
13148;DHT22;6639;50.956;4.242;2022-10-18T01:02:19;25.10;99.90
13148;DHT22;6639;50.956;4.242;2022-10-18T01:04:46;25.10;99.90
13148;DHT22;6639;50.956;4.242;2022-10-18T01:07:22;25.10;99.90
13148;DHT22;6639;50.956;4.242;2022-10-18T01:09:58;25.10;99.90
13148;DHT22;6639;50.956;4.242;2022-10-18T01:12:33;25.10;99.90
13148;DHT22;6639;50.956;4.242;2022-10-18T01:15:09;25.10;99.90
13148;DHT22;6639;50.956;4.242;2022-10-18T01:17:44;25.10;99.90
13148;DHT22;6639;50.956;4.242;2022-10-18T01:20:40;25.10;99.90
13148;DHT22;6639;50.956;4.242;2022-10-18T01:23:14;25.10;99.90
13148;DHT22;6639;50.956;4.242;2022-10-18T01:25:49;25.10;99.90
13148;DHT22;6639;50.956;4.242;2022-10-18T01:28:34;25.10;99.90
13148;DHT22;6639;50.956;4.242;2022-10-18T01:31:06;25.10;99.90
13148;DHT22;6639;50.956;4.242;2022-10-18T01:33:39;25.10;99.90
13148;DHT22;6639;50.956;4.242;2022-10-18T01:36:13;25.10;99.90
13148;DHT22;6639;50.956;4.242;2022-10-18T01:38:42;25.10;99.90
13148;DHT22;6639;50.956;4.242;2022-10-18T01:41:11;25.10;99.90
13148;DHT22;6639;50.956;4.242;2022-10-18T01:43:39;25.00;99.90
13148;DHT22;6639;50.956;4.242;2022-10-18T01:46:08;25.10;99.90
13148;DHT22;6639;50.956;4.242;2022-10-18T01:48:37;25.10;99.90
13148;DHT22;6639;50.956;4.242;2022-10-18T01:51:04;25.10;99.90
13148;DHT22;6639;50.956;4.242;2022-10-18T01:53:32;25.10;99.90
13148;DHT22;6639;50.956;4.242;2022-10-18T01:56:19;25.00;99.90
13148;DHT22;6639;50.956;4.242;2022-10-18T01:58:54;25.10;99.90
13148;DHT22;6639;50.956;4.242;2022-10-18T02:01:32;25.00;99.90
13148;DHT22;6639;50.956;4.242;2022-10-18T02:04:06;25.10;99.90
13148;DHT22;6639;50.956;4.242;2022-10-18T02:06:39;25.10;99.90
13148;DHT22;6639;50.956;4.242;2022-10-18T02:09:12;25.00;99.90
13148;DHT22;6639;50.956;4.242;2022-10-18T02:11:42;25.00;99.90
13148;DHT22;6639;50.956;4.242;2022-10-18T02:14:12;25.00;99.90
13148;DHT22;6639;50.956;4.242;2022-10-18T02:16:44;25.00;99.90
13148;DHT22;6639;50.956;4.242;2022-10-18T02:19:14;25.00;99.90
13148;DHT22;6639;50.956;4.242;2022-10-18T02:21:43;25.00;99.90
13148;DHT22;6639;50.956;4.242;2022-10-18T02:24:14;25.00;99.90
13148;DHT22;6639;50.956;4.242;2022-10-18T02:26:41;25.00;99.90
13148;DHT22;6639;50.956;4.242;2022-10-18T02:29:09;24.90;99.90
13148;DHT22;6639;50.956;4.242;2022-10-18T02:31:40;25.00;99.90
13148;DHT22;6639;50.956;4.242;2022-10-18T02:34:16;25.00;99.90
13148;DHT22;6639;50.956;4.242;2022-10-18T02:36:47;24.90;99.90
13148;DHT22;6639;50.956;4.242;2022-10-18T02:39:18;25.00;99.90
13148;DHT22;6639;50.956;4.242;2022-10-18T02:41:46;24.90;99.90
13148;DHT22;6639;50.956;4.242;2022-10-18T02:44:13;25.00;99.90
13148;DHT22;6639;50.956;4.242;2022-10-18T02:46:40;25.00;99.90
13148;DHT22;6639;50.956;4.242;2022-10-18T02:49:07;25.00;99.90
13148;DHT22;6639;50.956;4.242;2022-10-18T02:51:35;25.00;99.90
13148;DHT22;6639;50.956;4.242;2022-10-18T02:54:02;25.00;99.90
13148;DHT22;6639;50.956;4.242;2022-10-18T02:56:29;25.00;99.90
13148;DHT22;6639;50.956;4.242;2022-10-18T02:58:56;25.00;99.90
13148;DHT22;6639;50.956;4.242;2022-10-18T03:01:23;25.00;99.90
13148;DHT22;6639;50.956;4.242;2022-10-18T03:03:50;25.00;99.90
13148;DHT22;6639;50.956;4.242;2022-10-18T03:06:17;25.00;99.90
13148;DHT22;6639;50.956;4.242;2022-10-18T03:08:45;25.00;99.90
13148;DHT22;6639;50.956;4.242;2022-10-18T03:11:12;25.00;99.90
13148;DHT22;6639;50.956;4.242;2022-10-18T03:13:39;25.00;99.90
13148;DHT22;6639;50.956;4.242;2022-10-18T03:16:06;25.00;99.90
13148;DHT22;6639;50.956;4.242;2022-10-18T03:18:32;25.00;99.90
13148;DHT22;6639;50.956;4.242;2022-10-18T03:21:03;25.00;99.90
13148;DHT22;6639;50.956;4.242;2022-10-18T03:23:30;25.00;99.90
13148;DHT22;6639;50.956;4.242;2022-10-18T03:25:59;24.90;99.90
13148;DHT22;6639;50.956;4.242;2022-10-18T03:28:26;25.00;99.90
13148;DHT22;6639;50.956;4.242;2022-10-18T03:30:53;24.90;99.90
13148;DHT22;6639;50.956;4.242;2022-10-18T03:33:24;24.90;99.90
13148;DHT22;6639;50.956;4.242;2022-10-18T03:35:51;24.90;99.90
13148;DHT22;6639;50.956;4.242;2022-10-18T03:38:18;24.90;99.90
13148;DHT22;6639;50.956;4.242;2022-10-18T03:40:45;24.90;99.90
13148;DHT22;6639;50.956;4.242;2022-10-18T03:43:13;25.00;99.90
13148;DHT22;6639;50.956;4.242;2022-10-18T03:45:40;24.90;99.90
13148;DHT22;6639;50.956;4.242;2022-10-18T03:48:07;24.90;99.90
13148;DHT22;6639;50.956;4.242;2022-10-18T03:50:34;24.80;99.90
13148;DHT22;6639;50.956;4.242;2022-10-18T03:53:00;24.80;99.90
13148;DHT22;6639;50.956;4.242;2022-10-18T03:55:27;24.80;99.90
13148;DHT22;6639;50.956;4.242;2022-10-18T03:57:54;24.80;99.90
13148;DHT22;6639;50.956;4.242;2022-10-18T04:00:22;24.80;99.90
13148;DHT22;6639;50.956;4.242;2022-10-18T04:02:49;24.90;99.90
13148;DHT22;6639;50.956;4.242;2022-10-18T04:05:16;24.80;99.90
13148;DHT22;6639;50.956;4.242;2022-10-18T04:07:43;24.80;99.90
13148;DHT22;6639;50.956;4.242;2022-10-18T04:10:10;24.80;99.90
13148;DHT22;6639;50.956;4.242;2022-10-18T04:12:36;24.80;99.90
13148;DHT22;6639;50.956;4.242;2022-10-18T04:15:04;24.80;99.90
13148;DHT22;6639;50.956;4.242;2022-10-18T04:17:32;24.80;99.90
13148;DHT22;6639;50.956;4.242;2022-10-18T04:19:59;24.90;99.90
13148;DHT22;6639;50.956;4.242;2022-10-18T04:22:26;24.90;99.90
13148;DHT22;6639;50.956;4.242;2022-10-18T04:24:53;24.90;99.90
13148;DHT22;6639;50.956;4.242;2022-10-18T04:27:21;24.90;99.90
13148;DHT22;6639;50.956;4.242;2022-10-18T04:29:48;24.90;99.90
13148;DHT22;6639;50.956;4.242;2022-10-18T04:32:15;24.90;99.90
13148;DHT22;6639;50.956;4.242;2022-10-18T04:34:43;24.90;99.90
13148;DHT22;6639;50.956;4.242;2022-10-18T04:37:10;24.90;99.90
13148;DHT22;6639;50.956;4.242;2022-10-18T04:39:37;24.90;99.90
13148;DHT22;6639;50.956;4.242;2022-10-18T04:42:04;24.90;99.90
13148;DHT22;6639;50.956;4.242;2022-10-18T04:44:31;24.90;99.90
13148;DHT22;6639;50.956;4.242;2022-10-18T04:46:58;24.90;99.90
13148;DHT22;6639;50.956;4.242;2022-10-18T04:49:25;24.90;99.90
13148;DHT22;6639;50.956;4.242;2022-10-18T04:51:53;24.90;99.90
13148;DHT22;6639;50.956;4.242;2022-10-18T04:54:20;24.80;99.90
13148;DHT22;6639;50.956;4.242;2022-10-18T04:56:47;24.90;99.90
13148;DHT22;6639;50.956;4.242;2022-10-18T04:59:14;24.80;99.90
13148;DHT22;6639;50.956;4.242;2022-10-18T05:01:41;24.80;99.90
13148;DHT22;6639;50.956;4.242;2022-10-18T05:04:08;24.80;99.90
13148;DHT22;6639;50.956;4.242;2022-10-18T05:06:35;24.90;99.90
13148;DHT22;6639;50.956;4.242;2022-10-18T05:09:03;24.90;99.90
13148;DHT22;6639;50.956;4.242;2022-10-18T05:11:30;24.80;99.90
13148;DHT22;6639;50.956;4.242;2022-10-18T05:13:57;24.80;99.90
13148;DHT22;6639;50.956;4.242;2022-10-18T05:16:24;24.90;99.90
13148;DHT22;6639;50.956;4.242;2022-10-18T05:18:52;24.90;99.90
13148;DHT22;6639;50.956;4.242;2022-10-18T05:21:19;24.80;99.90
13148;DHT22;6639;50.956;4.242;2022-10-18T05:23:46;24.80;99.90
13148;DHT22;6639;50.956;4.242;2022-10-18T05:26:14;24.80;99.90
13148;DHT22;6639;50.956;4.242;2022-10-18T05:28:41;24.80;99.90
13148;DHT22;6639;50.956;4.242;2022-10-18T05:31:09;24.80;99.90
13148;DHT22;6639;50.956;4.242;2022-10-18T05:33:36;24.80;99.90
13148;DHT22;6639;50.956;4.242;2022-10-18T05:36:03;24.80;99.90
13148;DHT22;6639;50.956;4.242;2022-10-18T05:38:30;24.70;99.90
13148;DHT22;6639;50.956;4.242;2022-10-18T05:40:57;24.70;99.90
13148;DHT22;6639;50.956;4.242;2022-10-18T05:43:28;24.70;99.90
13148;DHT22;6639;50.956;4.242;2022-10-18T05:45:55;24.70;99.90
13148;DHT22;6639;50.956;4.242;2022-10-18T05:48:22;24.70;99.90
13148;DHT22;6639;50.956;4.242;2022-10-18T05:50:49;24.60;99.90
13148;DHT22;6639;50.956;4.242;2022-10-18T05:53:16;24.60;99.90
13148;DHT22;6639;50.956;4.242;2022-10-18T05:55:42;24.50;99.90
13148;DHT22;6639;50.956;4.242;2022-10-18T05:58:09;24.50;99.90
13148;DHT22;6639;50.956;4.242;2022-10-18T06:00:38;24.50;99.90
13148;DHT22;6639;50.956;4.242;2022-10-18T06:03:04;24.50;99.90
13148;DHT22;6639;50.956;4.242;2022-10-18T06:05:31;24.40;99.90
13148;DHT22;6639;50.956;4.242;2022-10-18T06:07:58;24.40;99.90
13148;DHT22;6639;50.956;4.242;2022-10-18T06:10:25;24.40;99.90
13148;DHT22;6639;50.956;4.242;2022-10-18T06:12:52;24.40;99.90
13148;DHT22;6639;50.956;4.242;2022-10-18T06:15:19;24.40;99.90
13148;DHT22;6639;50.956;4.242;2022-10-18T06:17:47;24.40;99.90
13148;DHT22;6639;50.956;4.242;2022-10-18T06:20:14;24.40;99.90
13148;DHT22;6639;50.956;4.242;2022-10-18T06:22:41;24.30;99.90
13148;DHT22;6639;50.956;4.242;2022-10-18T06:25:08;24.30;99.90
13148;DHT22;6639;50.956;4.242;2022-10-18T06:27:35;24.30;99.90
13148;DHT22;6639;50.956;4.242;2022-10-18T06:30:03;24.30;99.90
13148;DHT22;6639;50.956;4.242;2022-10-18T06:32:30;24.20;99.90
13148;DHT22;6639;50.956;4.242;2022-10-18T06:34:58;24.20;99.90
13148;DHT22;6639;50.956;4.242;2022-10-18T06:37:24;24.10;99.90
13148;DHT22;6639;50.956;4.242;2022-10-18T06:39:54;24.20;99.90
13148;DHT22;6639;50.956;4.242;2022-10-18T06:42:21;24.10;99.90
13148;DHT22;6639;50.956;4.242;2022-10-18T06:44:48;24.10;99.90
13148;DHT22;6639;50.956;4.242;2022-10-18T06:47:14;24.10;99.90
13148;DHT22;6639;50.956;4.242;2022-10-18T06:49:41;24.10;99.90
13148;DHT22;6639;50.956;4.242;2022-10-18T06:52:09;24.10;99.90
13148;DHT22;6639;50.956;4.242;2022-10-18T06:54:36;24.10;99.90
13148;DHT22;6639;50.956;4.242;2022-10-18T06:57:03;24.10;99.90
13148;DHT22;6639;50.956;4.242;2022-10-18T06:59:30;24.10;99.90
13148;DHT22;6639;50.956;4.242;2022-10-18T07:01:57;24.10;99.90
13148;DHT22;6639;50.956;4.242;2022-10-18T07:04:27;24.00;99.90
13148;DHT22;6639;50.956;4.242;2022-10-18T07:06:54;24.00;99.90
13148;DHT22;6639;50.956;4.242;2022-10-18T07:09:22;24.10;99.90
13148;DHT22;6639;50.956;4.242;2022-10-18T07:11:49;24.10;99.90
13148;DHT22;6639;50.956;4.242;2022-10-18T07:14:17;24.10;99.90
13148;DHT22;6639;50.956;4.242;2022-10-18T07:16:44;24.20;99.90
13148;DHT22;6639;50.956;4.242;2022-10-18T07:19:11;24.20;99.90
13148;DHT22;6639;50.956;4.242;2022-10-18T07:21:38;24.20;99.90
13148;DHT22;6639;50.956;4.242;2022-10-18T07:24:05;24.30;99.90
13148;DHT22;6639;50.956;4.242;2022-10-18T07:26:34;24.60;99.90
13148;DHT22;6639;50.956;4.242;2022-10-18T07:29:04;24.90;99.90
13148;DHT22;6639;50.956;4.242;2022-10-18T07:31:31;25.20;99.90
13148;DHT22;6639;50.956;4.242;2022-10-18T07:33:58;25.50;99.90
13148;DHT22;6639;50.956;4.242;2022-10-18T07:36:26;26.00;99.90
13148;DHT22;6639;50.956;4.242;2022-10-18T07:38:52;26.30;99.90
13148;DHT22;6639;50.956;4.242;2022-10-18T07:41:20;26.60;99.90
13148;DHT22;6639;50.956;4.242;2022-10-18T07:43:50;27.00;99.90
13148;DHT22;6639;50.956;4.242;2022-10-18T07:46:19;27.30;99.90
13148;DHT22;6639;50.956;4.242;2022-10-18T07:48:46;27.60;99.90
13148;DHT22;6639;50.956;4.242;2022-10-18T07:51:13;28.00;99.90
13148;DHT22;6639;50.956;4.242;2022-10-18T07:53:40;28.30;99.90
13148;DHT22;6639;50.956;4.242;2022-10-18T07:56:09;28.60;99.90
13148;DHT22;6639;50.956;4.242;2022-10-18T07:58:40;28.90;99.90
13148;DHT22;6639;50.956;4.242;2022-10-18T08:01:08;29.30;99.90
13148;DHT22;6639;50.956;4.242;2022-10-18T08:03:36;29.70;99.90
13148;DHT22;6639;50.956;4.242;2022-10-18T08:06:04;30.00;99.90
13148;DHT22;6639;50.956;4.242;2022-10-18T08:08:32;30.40;99.90
13148;DHT22;6639;50.956;4.242;2022-10-18T08:11:01;30.70;99.20
13148;DHT22;6639;50.956;4.242;2022-10-18T08:13:28;31.00;98.80
13148;DHT22;6639;50.956;4.242;2022-10-18T08:15:59;31.30;98.40
13148;DHT22;6639;50.956;4.242;2022-10-18T08:18:27;31.00;97.80
13148;DHT22;6639;50.956;4.242;2022-10-18T08:20:54;30.90;98.10
13148;DHT22;6639;50.956;4.242;2022-10-18T08:23:21;31.20;98.10
13148;DHT22;6639;50.956;4.242;2022-10-18T08:25:48;31.20;97.70
13148;DHT22;6639;50.956;4.242;2022-10-18T08:28:15;31.20;97.70
13148;DHT22;6639;50.956;4.242;2022-10-18T08:30:42;31.20;97.60
13148;DHT22;6639;50.956;4.242;2022-10-18T08:33:10;31.10;97.50
13148;DHT22;6639;50.956;4.242;2022-10-18T08:35:38;31.10;97.60
13148;DHT22;6639;50.956;4.242;2022-10-18T08:38:05;31.10;97.40
13148;DHT22;6639;50.956;4.242;2022-10-18T08:40:41;30.30;97.60
13148;DHT22;6639;50.956;4.242;2022-10-18T08:43:13;30.00;98.20
13148;DHT22;6639;50.956;4.242;2022-10-18T08:45:43;30.60;97.80
13148;DHT22;6639;50.956;4.242;2022-10-18T08:48:18;30.10;97.40
13148;DHT22;6639;50.956;4.242;2022-10-18T08:50:49;30.50;97.30
13148;DHT22;6639;50.956;4.242;2022-10-18T08:53:19;30.20;97.20
13148;DHT22;6639;50.956;4.242;2022-10-18T08:55:51;30.40;97.60
13148;DHT22;6639;50.956;4.242;2022-10-18T08:58:21;30.40;96.70
13148;DHT22;6639;50.956;4.242;2022-10-18T09:00:57;30.00;97.50
13148;DHT22;6639;50.956;4.242;2022-10-18T09:03:46;29.60;98.00
13148;DHT22;6639;50.956;4.242;2022-10-18T09:06:18;30.30;97.70
13148;DHT22;6639;50.956;4.242;2022-10-18T09:08:56;30.70;97.20
13148;DHT22;6639;50.956;4.242;2022-10-18T09:11:40;30.00;97.40
13148;DHT22;6639;50.956;4.242;2022-10-18T09:17:30;30.50;96.10
13148;DHT22;6639;50.956;4.242;2022-10-18T09:20:15;30.90;96.40
13148;DHT22;6639;50.956;4.242;2022-10-18T09:22:55;30.50;96.30
13148;DHT22;6639;50.956;4.242;2022-10-18T09:25:27;30.90;95.80
13148;DHT22;6639;50.956;4.242;2022-10-18T09:28:10;31.30;95.70
13148;DHT22;6639;50.956;4.242;2022-10-18T09:30:44;31.00;95.90
13148;DHT22;6639;50.956;4.242;2022-10-18T09:33:32;30.70;96.20
13148;DHT22;6639;50.956;4.242;2022-10-18T09:36:02;30.80;96.40
13148;DHT22;6639;50.956;4.242;2022-10-18T09:38:34;31.00;95.70
13148;DHT22;6639;50.956;4.242;2022-10-18T09:41:07;31.40;95.70
13148;DHT22;6639;50.956;4.242;2022-10-18T09:43:41;29.30;95.80
13148;DHT22;6639;50.956;4.242;2022-10-18T09:46:12;28.80;97.20
13148;DHT22;6639;50.956;4.242;2022-10-18T09:48:44;28.90;97.50
13148;DHT22;6639;50.956;4.242;2022-10-18T09:51:14;29.40;97.40
13148;DHT22;6639;50.956;4.242;2022-10-18T09:53:56;29.90;96.50
13148;DHT22;6639;50.956;4.242;2022-10-18T09:56:29;29.70;97.20
13148;DHT22;6639;50.956;4.242;2022-10-18T09:58:56;29.70;97.50
13148;DHT22;6639;50.956;4.242;2022-10-18T10:01:24;29.70;97.00
13148;DHT22;6639;50.956;4.242;2022-10-18T10:03:51;29.70;96.80
13148;DHT22;6639;50.956;4.242;2022-10-18T10:06:26;29.50;97.60
13148;DHT22;6639;50.956;4.242;2022-10-18T10:08:57;29.80;97.50
13148;DHT22;6639;50.956;4.242;2022-10-18T10:11:33;30.20;97.10
13148;DHT22;6639;50.956;4.242;2022-10-18T10:14:11;30.10;96.60
13148;DHT22;6639;50.956;4.242;2022-10-18T10:16:43;30.50;96.10
13148;DHT22;6639;50.956;4.242;2022-10-18T10:19:16;30.90;95.20
13148;DHT22;6639;50.956;4.242;2022-10-18T10:21:44;31.40;95.60
13148;DHT22;6639;50.956;4.242;2022-10-18T10:24:28;30.50;94.90
13148;DHT22;6639;50.956;4.242;2022-10-18T10:27:04;31.20;94.20
13148;DHT22;6639;50.956;4.242;2022-10-18T10:29:53;31.70;93.70
13148;DHT22;6639;50.956;4.242;2022-10-18T10:32:24;32.10;93.90
13148;DHT22;6639;50.956;4.242;2022-10-18T10:34:52;32.30;93.70
13148;DHT22;6639;50.956;4.242;2022-10-18T10:37:25;31.00;93.60
13148;DHT22;6639;50.956;4.242;2022-10-18T10:40:13;30.60;94.60
13148;DHT22;6639;50.956;4.242;2022-10-18T10:43:05;31.40;94.40
13148;DHT22;6639;50.956;4.242;2022-10-18T10:45:42;31.40;93.60
13148;DHT22;6639;50.956;4.242;2022-10-18T10:48:20;31.30;93.90
13148;DHT22;6639;50.956;4.242;2022-10-18T10:50:54;31.80;93.20
13148;DHT22;6639;50.956;4.242;2022-10-18T10:53:36;32.20;92.50
13148;DHT22;6639;50.956;4.242;2022-10-18T10:56:11;32.30;93.30
13148;DHT22;6639;50.956;4.242;2022-10-18T10:58:39;32.50;92.10
13148;DHT22;6639;50.956;4.242;2022-10-18T11:01:31;32.30;91.50
13148;DHT22;6639;50.956;4.242;2022-10-18T11:04:00;32.30;92.10
13148;DHT22;6639;50.956;4.242;2022-10-18T11:06:46;32.60;91.50
13148;DHT22;6639;50.956;4.242;2022-10-18T11:12:09;32.70;92.00
13148;DHT22;6639;50.956;4.242;2022-10-18T11:14:40;32.30;90.70
13148;DHT22;6639;50.956;4.242;2022-10-18T11:17:16;32.10;90.30
13148;DHT22;6639;50.956;4.242;2022-10-18T11:19:58;32.10;90.70
13148;DHT22;6639;50.956;4.242;2022-10-18T11:22:29;32.60;90.90
13148;DHT22;6639;50.956;4.242;2022-10-18T11:24:57;32.70;90.70
13148;DHT22;6639;50.956;4.242;2022-10-18T11:27:29;32.50;90.80
13148;DHT22;6639;50.956;4.242;2022-10-18T11:30:13;32.50;90.90
13148;DHT22;6639;50.956;4.242;2022-10-18T11:32:46;32.70;90.80
13148;DHT22;6639;50.956;4.242;2022-10-18T11:35:31;33.10;90.90
13148;DHT22;6639;50.956;4.242;2022-10-18T11:38:17;33.10;90.50
13148;DHT22;6639;50.956;4.242;2022-10-18T11:40:54;33.20;90.50
13148;DHT22;6639;50.956;4.242;2022-10-18T11:43:34;33.20;90.80
13148;DHT22;6639;50.956;4.242;2022-10-18T11:46:08;33.20;91.10
13148;DHT22;6639;50.956;4.242;2022-10-18T11:48:46;33.10;90.00
13148;DHT22;6639;50.956;4.242;2022-10-18T11:51:22;33.30;90.30
13148;DHT22;6639;50.956;4.242;2022-10-18T11:54:02;33.50;89.80
13148;DHT22;6639;50.956;4.242;2022-10-18T11:56:38;33.80;89.50
13148;DHT22;6639;50.956;4.242;2022-10-18T11:59:22;33.80;90.00
13148;DHT22;6639;50.956;4.242;2022-10-18T12:01:59;33.60;87.30
13148;DHT22;6639;50.956;4.242;2022-10-18T12:04:33;33.60;89.70
13148;DHT22;6639;50.956;4.242;2022-10-18T12:07:04;33.30;89.10
13148;DHT22;6639;50.956;4.242;2022-10-18T12:09:36;32.20;87.70
13148;DHT22;6639;50.956;4.242;2022-10-18T12:12:06;32.50;90.40
13148;DHT22;6639;50.956;4.242;2022-10-18T12:14:38;32.50;90.40
13148;DHT22;6639;50.956;4.242;2022-10-18T12:17:13;32.90;90.10
13148;DHT22;6639;50.956;4.242;2022-10-18T12:19:44;31.00;91.00
13148;DHT22;6639;50.956;4.242;2022-10-18T12:22:15;31.60;91.30
13148;DHT22;6639;50.956;4.242;2022-10-18T12:24:43;31.80;90.20
13148;DHT22;6639;50.956;4.242;2022-10-18T12:27:13;31.00;90.60
13148;DHT22;6639;50.956;4.242;2022-10-18T12:29:46;30.80;90.20
13148;DHT22;6639;50.956;4.242;2022-10-18T12:32:19;31.40;90.70
13148;DHT22;6639;50.956;4.242;2022-10-18T12:34:49;32.10;90.20
13148;DHT22;6639;50.956;4.242;2022-10-18T12:37:43;32.00;88.60
13148;DHT22;6639;50.956;4.242;2022-10-18T12:40:16;30.60;90.20
13148;DHT22;6639;50.956;4.242;2022-10-18T12:42:48;29.70;91.70
13148;DHT22;6639;50.956;4.242;2022-10-18T12:45:25;29.00;92.80
13148;DHT22;6639;50.956;4.242;2022-10-18T12:47:53;29.80;92.60
13148;DHT22;6639;50.956;4.242;2022-10-18T12:50:28;30.70;93.00
13148;DHT22;6639;50.956;4.242;2022-10-18T12:53:14;29.80;91.80
13148;DHT22;6639;50.956;4.242;2022-10-18T12:55:44;29.30;92.60
13148;DHT22;6639;50.956;4.242;2022-10-18T12:58:23;29.60;93.30
13148;DHT22;6639;50.956;4.242;2022-10-18T13:01:06;30.10;92.40
13148;DHT22;6639;50.956;4.242;2022-10-18T13:09:33;31.10;92.80
13148;DHT22;6639;50.956;4.242;2022-10-18T13:12:35;31.00;92.40
13148;DHT22;6639;50.956;4.242;2022-10-18T13:15:34;30.40;91.90
13148;DHT22;6639;50.956;4.242;2022-10-18T13:18:13;30.10;92.10
13148;DHT22;6639;50.956;4.242;2022-10-18T13:20:48;29.80;91.70
13148;DHT22;6639;50.956;4.242;2022-10-18T13:23:32;29.50;91.70
13148;DHT22;6639;50.956;4.242;2022-10-18T13:26:10;28.10;92.40
13148;DHT22;6639;50.956;4.242;2022-10-18T13:28:47;28.50;93.20
13148;DHT22;6639;50.956;4.242;2022-10-18T13:31:20;28.50;93.50
13148;DHT22;6639;50.956;4.242;2022-10-18T13:33:49;29.00;92.90
13148;DHT22;6639;50.956;4.242;2022-10-18T13:36:21;29.70;92.50
13148;DHT22;6639;50.956;4.242;2022-10-18T13:39:03;30.30;92.00
13148;DHT22;6639;50.956;4.242;2022-10-18T13:41:32;30.40;91.40
13148;DHT22;6639;50.956;4.242;2022-10-18T13:44:26;30.50;91.30
13148;DHT22;6639;50.956;4.242;2022-10-18T13:47:10;30.00;90.80
13148;DHT22;6639;50.956;4.242;2022-10-18T13:49:58;30.80;91.90
13148;DHT22;6639;50.956;4.242;2022-10-18T13:52:35;30.90;91.60
13148;DHT22;6639;50.956;4.242;2022-10-18T13:55:24;30.60;91.20
13148;DHT22;6639;50.956;4.242;2022-10-18T13:58:02;30.90;91.20
13148;DHT22;6639;50.956;4.242;2022-10-18T14:00:48;30.40;90.40
13148;DHT22;6639;50.956;4.242;2022-10-18T14:03:48;30.00;90.90
13148;DHT22;6639;50.956;4.242;2022-10-18T14:06:21;30.20;91.00
13148;DHT22;6639;50.956;4.242;2022-10-18T14:08:54;30.40;91.20
13148;DHT22;6639;50.956;4.242;2022-10-18T14:11:29;30.00;91.60
13148;DHT22;6639;50.956;4.242;2022-10-18T14:14:03;29.20;91.20
13148;DHT22;6639;50.956;4.242;2022-10-18T14:16:35;29.70;91.00
13148;DHT22;6639;50.956;4.242;2022-10-18T14:19:16;29.60;91.00
13148;DHT22;6639;50.956;4.242;2022-10-18T14:21:52;28.60;91.40
13148;DHT22;6639;50.956;4.242;2022-10-18T14:24:23;28.70;92.30
13148;DHT22;6639;50.956;4.242;2022-10-18T14:27:08;29.30;91.40
13148;DHT22;6639;50.956;4.242;2022-10-18T14:29:35;28.20;92.00
13148;DHT22;6639;50.956;4.242;2022-10-18T14:32:02;28.40;92.30
13148;DHT22;6639;50.956;4.242;2022-10-18T14:34:33;28.60;91.60
13148;DHT22;6639;50.956;4.242;2022-10-18T14:37:02;28.50;91.70
13148;DHT22;6639;50.956;4.242;2022-10-18T14:39:29;29.20;91.70
13148;DHT22;6639;50.956;4.242;2022-10-18T14:41:57;28.20;90.60
13148;DHT22;6639;50.956;4.242;2022-10-18T14:44:26;27.60;91.20
13148;DHT22;6639;50.956;4.242;2022-10-18T14:46:59;28.20;91.10
13148;DHT22;6639;50.956;4.242;2022-10-18T14:49:27;28.20;91.50
13148;DHT22;6639;50.956;4.242;2022-10-18T14:51:55;29.00;90.90
13148;DHT22;6639;50.956;4.242;2022-10-18T14:54:27;29.20;89.60
13148;DHT22;6639;50.956;4.242;2022-10-18T14:56:55;28.80;88.90
13148;DHT22;6639;50.956;4.242;2022-10-18T14:59:24;28.90;88.10
13148;DHT22;6639;50.956;4.242;2022-10-18T15:01:54;28.90;88.90
13148;DHT22;6639;50.956;4.242;2022-10-18T15:04:23;29.20;89.20
13148;DHT22;6639;50.956;4.242;2022-10-18T15:06:56;29.60;89.60
13148;DHT22;6639;50.956;4.242;2022-10-18T15:09:24;29.50;88.00
13148;DHT22;6639;50.956;4.242;2022-10-18T15:11:53;29.80;87.60
13148;DHT22;6639;50.956;4.242;2022-10-18T15:14:24;29.40;88.00
13148;DHT22;6639;50.956;4.242;2022-10-18T15:16:54;28.90;88.00
13148;DHT22;6639;50.956;4.242;2022-10-18T15:19:28;29.10;89.10
13148;DHT22;6639;50.956;4.242;2022-10-18T15:21:57;29.40;90.00
13148;DHT22;6639;50.956;4.242;2022-10-18T15:24:31;29.50;89.40
13148;DHT22;6639;50.956;4.242;2022-10-18T15:27:01;29.20;89.10
13148;DHT22;6639;50.956;4.242;2022-10-18T15:29:34;29.40;90.40
13148;DHT22;6639;50.956;4.242;2022-10-18T15:32:23;29.50;90.50
13148;DHT22;6639;50.956;4.242;2022-10-18T15:34:51;29.00;90.10
13148;DHT22;6639;50.956;4.242;2022-10-18T15:37:30;29.10;90.50
13148;DHT22;6639;50.956;4.242;2022-10-18T15:43:31;28.70;91.30
13148;DHT22;6639;50.956;4.242;2022-10-18T15:45:54;29.10;91.40
13148;DHT22;6639;50.956;4.242;2022-10-18T15:48:23;29.30;91.00
13148;DHT22;6639;50.956;4.242;2022-10-18T15:50:51;29.20;90.90
13148;DHT22;6639;50.956;4.242;2022-10-18T15:53:33;29.50;91.10
13148;DHT22;6639;50.956;4.242;2022-10-18T15:56:04;29.10;91.30
13148;DHT22;6639;50.956;4.242;2022-10-18T15:58:39;29.00;91.30
13148;DHT22;6639;50.956;4.242;2022-10-18T16:01:12;28.90;91.50
13148;DHT22;6639;50.956;4.242;2022-10-18T16:03:40;28.70;91.50
13148;DHT22;6639;50.956;4.242;2022-10-18T16:06:09;28.70;91.70
13148;DHT22;6639;50.956;4.242;2022-10-18T16:08:38;28.50;92.00
13148;DHT22;6639;50.956;4.242;2022-10-18T16:11:12;28.70;91.80
13148;DHT22;6639;50.956;4.242;2022-10-18T16:13:39;28.40;92.00
13148;DHT22;6639;50.956;4.242;2022-10-18T16:16:08;28.10;92.30
13148;DHT22;6639;50.956;4.242;2022-10-18T16:18:36;28.00;92.50
13148;DHT22;6639;50.956;4.242;2022-10-18T16:21:03;28.00;92.40
13148;DHT22;6639;50.956;4.242;2022-10-18T16:23:30;27.70;92.70
13148;DHT22;6639;50.956;4.242;2022-10-18T16:25:57;27.60;93.00